Time;durP1;ratioP1;P1;durP2;ratioP2;P2;SDS_P1;SDS_P2;PMS_P1;PMS_P2;Temp;Humidity;BMP_temperature;BMP_pressure;BME280_temperature;BME280_humidity;BME280_pressure;Samples;Min_cycle;Max_cycle;Signal;HPM_P1;HPM_P2
2021/06/24 00:00:50;;;;;;;33.75;10.88;;;666.40;1920.00;;;;;;5092050;28;20024;-75
2021/06/24 00:03:16;;;;;;;28.15;10.57;;;666.20;1945.60;;;;;;5074105;28;20031;-75
2021/06/24 00:05:43;;;;;;;30.80;10.35;;;666.20;1945.60;;;;;;5092200;28;20024;-78
2021/06/24 00:08:10;;;;;;;33.83;9.75;;;666.20;1945.60;;;;;;5092112;28;20485;-78
2021/06/24 00:10:38;;;;;;;29.33;9.52;;;666.00;1945.60;;;;;;5073926;28;20024;-75
2021/06/24 00:13:04;;;;;;;23.27;8.32;;;666.00;1945.60;;;;;;5092181;28;20019;-76
2021/06/24 00:15:31;;;;;;;31.30;10.63;;;666.00;1945.60;;;;;;5091810;28;20049;-76
2021/06/24 00:17:56;;;;;;;36.35;9.75;;;665.80;1945.60;;;;;;5073501;28;20028;-76
2021/06/24 00:20:22;;;;;;;36.35;11.48;;;665.70;1945.60;;;;;;5092333;28;20367;-80
2021/06/24 00:22:48;;;;;;;27.63;11.20;;;665.70;1945.60;;;;;;5091804;28;20124;-76
2021/06/24 00:25:14;;;;;;;37.20;10.45;;;665.60;1945.60;;;;;;5092045;28;20028;-80
2021/06/24 00:27:40;;;;;;;38.75;12.80;;;640.90;1920.00;;;;;;5090073;28;20041;-76
2021/06/24 00:30:07;;;;;;;42.15;17.00;;;640.80;1920.00;;;;;;5073879;28;20028;-79
2021/06/24 00:32:33;;;;;;;39.50;16.33;;;640.80;1920.00;;;;;;5076020;28;20028;-75
2021/06/24 00:35:01;;;;;;;43.40;15.13;;;640.70;1945.60;;;;;;5077867;28;20466;-77
2021/06/24 00:37:28;;;;;;;39.78;13.05;;;640.30;1945.60;;;;;;5077628;28;20490;-76
2021/06/24 00:39:55;;;;;;;40.40;11.77;;;640.70;1945.60;;;;;;5077674;28;20108;-76
2021/06/24 00:42:22;;;;;;;35.47;12.07;;;640.60;1945.60;;;;;;5077859;28;20115;-76
2021/06/24 00:44:48;;;;;;;28.40;11.07;;;640.50;1945.60;;;;;;5095529;28;20043;-76
2021/06/24 00:47:14;;;;;;;43.13;12.25;;;640.50;1971.20;;;;;;5077696;28;20466;-76
2021/06/24 00:49:39;;;;;;;36.33;11.95;;;640.50;1971.20;;;;;;5094375;28;20465;-76
2021/06/24 00:52:06;;;;;;;42.47;11.70;;;640.50;1971.20;;;;;;5095824;28;20102;-76
2021/06/24 00:54:31;;;;;;;25.20;10.25;;;640.50;1971.20;;;;;;5095418;28;20358;-79
2021/06/24 00:56:57;;;;;;;37.15;10.40;;;640.70;1945.60;;;;;;5095550;28;20047;-76
2021/06/24 00:59:23;;;;;;;33.00;9.63;;;640.50;1971.20;;;;;;5095260;28;20377;-75
2021/06/24 01:01:49;;;;;;;27.73;9.40;;;640.50;1996.80;;;;;;5095885;28;20449;-75
2021/06/24 01:04:21;;;;;;;30.35;9.15;;;640.50;1996.80;;;;;;5095047;28;20024;-76
2021/06/24 01:06:48;;;;;;;28.55;9.95;;;640.40;1996.80;;;;;;5095406;28;20043;-77
2021/06/24 01:09:14;;;;;;;30.80;8.68;;;640.50;1996.80;;;;;;5077052;28;20028;-76
2021/06/24 01:11:41;;;;;;;23.75;8.07;;;640.60;1996.80;;;;;;5095299;28;20043;-75
2021/06/24 01:14:09;;;;;;;25.98;8.55;;;640.90;1971.20;;;;;;5095125;28;20451;-75
2021/06/24 01:16:38;;;;;;;18.88;8.63;;;640.90;1971.20;;;;;;5095156;28;20032;-77
2021/06/24 01:19:04;;;;;;;32.40;7.68;;;640.80;1996.80;;;;;;5076775;28;20461;-75
2021/06/24 01:21:31;;;;;;;25.23;8.60;;;665.70;1996.80;;;;;;5077044;28;20038;-75
2021/06/24 01:23:57;;;;;;;20.48;7.85;;;665.60;1996.80;;;;;;5095117;28;20024;-76
2021/06/24 01:26:23;;;;;;;31.90;7.72;;;640.90;1996.80;;;;;;5094629;28;20055;-76
2021/06/24 01:28:49;;;;;;;30.90;8.18;;;640.90;1971.20;;;;;;5094703;28;20032;-76
2021/06/24 01:31:16;;;;;;;35.08;9.57;;;640.90;1971.20;;;;;;5077095;28;20028;-75
2021/06/24 01:33:43;;;;;;;21.70;8.52;;;640.70;1971.20;;;;;;5075604;28;20066;-77
2021/06/24 01:36:09;;;;;;;31.70;8.25;;;640.70;1971.20;;;;;;5095111;28;20063;-75
2021/06/24 01:38:36;;;;;;;16.48;7.95;;;640.60;1971.20;;;;;;5076104;28;20051;-76
2021/06/24 01:41:02;;;;;;;20.45;7.57;;;640.50;1971.20;;;;;;5095017;28;20028;-76
2021/06/24 01:43:28;;;;;;;29.48;8.50;;;640.50;1996.80;;;;;;5075517;28;20035;-76
2021/06/24 01:45:57;;;;;;;19.88;7.00;;;640.30;2022.40;;;;;;5094806;28;20025;-76
2021/06/24 01:48:24;;;;;;;26.55;7.88;;;640.20;2022.40;;;;;;5094486;28;20020;-76
2021/06/24 01:50:53;;;;;;;22.77;8.75;;;640.20;2048.00;;;;;;5094638;28;20020;-76
2021/06/24 01:53:18;;;;;;;29.75;8.88;;;640.20;2048.00;;;;;;5075753;28;20199;-76
2021/06/24 01:55:44;;;;;;;25.15;9.55;;;640.10;2073.60;;;;;;5094464;28;20043;-76
2021/06/24 01:58:16;;;;;;;35.63;9.05;;;640.10;2073.60;;;;;;5075505;28;20016;-76
2021/06/24 02:00:44;;;;;;;26.00;8.60;;;640.10;2073.60;;;;;;5094335;28;20024;-77
2021/06/24 02:03:13;;;;;;;29.77;8.45;;;640.00;2099.20;;;;;;5075530;28;20032;-76
2021/06/24 02:05:40;;;;;;;31.58;8.60;;;640.10;2073.60;;;;;;5076005;28;20032;-76
2021/06/24 02:08:13;;;;;;;29.70;9.55;;;640.10;2073.60;;;;;;5094391;28;20066;-77
2021/06/24 02:10:39;;;;;;;30.30;8.52;;;640.10;2073.60;;;;;;5076189;28;20074;-75
2021/06/24 02:13:05;;;;;;;27.45;8.57;;;640.00;2073.60;;;;;;5093967;28;20381;-81
2021/06/24 02:15:30;;;;;;;29.52;9.68;;;640.00;2073.60;;;;;;5075760;28;20024;-77
2021/06/24 02:17:56;;;;;;;29.92;10.35;;;640.00;2073.60;;;;;;5075723;28;20048;-76
2021/06/24 02:20:22;;;;;;;26.90;9.27;;;615.20;2073.60;;;;;;5094038;28;20062;-78
2021/06/24 02:22:48;;;;;;;35.53;9.18;;;615.20;2099.20;;;;;;5093443;28;20458;-76
2021/06/24 02:25:14;;;;;;;31.13;9.18;;;615.10;2099.20;;;;;;5075065;28;20060;-77
2021/06/24 02:27:41;;;;;;;25.90;8.68;;;615.10;2099.20;;;;;;5075173;28;20398;-76
2021/06/24 02:30:09;;;;;;;23.23;6.97;;;615.10;2073.60;;;;;;5093858;28;20024;-76
2021/06/24 02:32:35;;;;;;;23.65;7.82;;;615.10;2073.60;;;;;;5075898;28;20023;-75
2021/06/24 02:35:04;;;;;;;21.48;7.63;;;615.00;2099.20;;;;;;5093334;28;20024;-76
2021/06/24 02:37:30;;;;;;;34.45;8.30;;;615.00;2099.20;;;;;;5093835;28;20032;-77
2021/06/24 02:39:55;;;;;;;21.45;7.68;;;615.00;2099.20;;;;;;5093428;28;20024;-76
2021/06/24 02:42:21;;;;;;;27.13;7.85;;;615.00;2073.60;;;;;;5093677;28;20024;-76
2021/06/24 02:44:47;;;;;;;27.15;8.15;;;615.00;2073.60;;;;;;5093388;28;20045;-76
2021/06/24 02:47:12;;;;;;;28.48;7.95;;;615.00;2099.20;;;;;;5093613;28;20024;-77
2021/06/24 02:49:38;;;;;;;25.55;7.53;;;615.00;2099.20;;;;;;5075124;28;20031;-76
2021/06/24 02:52:04;;;;;;;22.55;7.50;;;615.00;2073.60;;;;;;5093522;28;20538;-76
2021/06/24 02:54:30;;;;;;;29.60;7.82;;;615.00;2073.60;;;;;;5074792;28;20158;-76
2021/06/24 02:57:00;;;;;;;23.00;6.97;;;615.00;2073.60;;;;;;5076745;28;20397;-75
2021/06/24 02:59:26;;;;;;;21.42;7.22;;;614.90;2073.60;;;;;;5088508;28;20110;-76
2021/06/24 03:01:52;;;;;;;18.35;7.57;;;614.90;2073.60;;;;;;5081506;28;20099;-76
2021/06/24 03:04:22;;;;;;;28.40;8.25;;;614.80;2073.60;;;;;;5082534;28;20444;-76
2021/06/24 03:06:52;;;;;;;21.63;9.13;;;614.70;2099.20;;;;;;5065163;28;20047;-78
2021/06/24 03:09:19;;;;;;;43.90;10.15;;;614.70;2073.60;;;;;;5082608;28;20393;-74
2021/06/24 03:11:47;;;;;;;30.48;7.85;;;614.80;2073.60;;;;;;5073441;28;20028;-78
2021/06/24 03:14:12;;;;;;;31.35;9.52;;;614.80;2073.60;;;;;;5092919;28;20105;-77
2021/06/24 03:16:39;;;;;;;28.60;7.80;;;614.80;2073.60;;;;;;5092776;28;20070;-80
2021/06/24 03:19:05;;;;;;;17.92;6.00;;;614.70;2073.60;;;;;;5092745;28;20023;-76
2021/06/24 03:21:32;;;;;;;21.27;6.85;;;614.80;2073.60;;;;;;5093027;28;20051;-80
2021/06/24 03:23:57;;;;;;;33.40;7.35;;;615.00;2048.00;;;;;;5074397;28;20016;-76
2021/06/24 03:26:23;;;;;;;16.65;6.40;;;614.80;2073.60;;;;;;5073169;28;20470;-77
2021/06/24 03:28:49;;;;;;;24.02;7.72;;;614.70;2073.60;;;;;;5091759;28;20105;-76
2021/06/24 03:31:15;;;;;;;22.40;7.25;;;614.70;2073.60;;;;;;5091980;28;20032;-76
2021/06/24 03:33:41;;;;;;;23.83;8.63;;;614.70;2073.60;;;;;;5092055;28;20099;-80
2021/06/24 03:36:07;;;;;;;20.23;6.32;;;614.70;2099.20;;;;;;5092037;28;20043;-78
2021/06/24 03:38:33;;;;;;;29.15;8.40;;;614.70;2073.60;;;;;;5092469;28;20074;-77
2021/06/24 03:40:59;;;;;;;19.95;6.65;;;614.80;2073.60;;;;;;5073820;28;20032;-76
2021/06/24 03:43:25;;;;;;;24.77;8.23;;;614.90;2073.60;;;;;;5092238;28;20362;-76
2021/06/24 03:45:50;;;;;;;24.83;8.10;;;615.00;2048.00;;;;;;5092274;28;20024;-76
2021/06/24 03:48:16;;;;;;;27.73;7.88;;;615.00;2048.00;;;;;;5073712;28;20069;-76
2021/06/24 03:50:42;;;;;;;16.67;6.63;;;614.90;2073.60;;;;;;5069633;28;20081;-77
2021/06/24 03:53:08;;;;;;;20.50;8.38;;;614.80;2073.60;;;;;;5072274;28;20099;-77
2021/06/24 03:55:40;;;;;;;27.38;7.13;;;614.90;2073.60;;;;;;5071651;28;20578;-77
2021/06/24 03:58:07;;;;;;;19.17;7.03;;;614.80;2073.60;;;;;;5071981;28;20036;-76
2021/06/24 04:00:34;;;;;;;26.70;7.80;;;615.00;2073.60;;;;;;5070614;28;20025;-77
2021/06/24 04:03:00;;;;;;;21.13;7.82;;;615.00;2073.60;;;;;;5070886;28;20028;-77
2021/06/24 04:05:29;;;;;;;31.48;8.18;;;615.00;2073.60;;;;;;5075906;28;20110;-77
2021/06/24 04:07:55;;;;;;;29.02;8.98;;;615.00;2073.60;;;;;;5073555;28;20102;-76
2021/06/24 04:10:21;;;;;;;29.33;9.38;;;615.10;2073.60;;;;;;5090855;28;20055;-76
2021/06/24 04:12:46;;;;;;;34.80;9.13;;;615.10;2073.60;;;;;;5091817;28;20478;-79
2021/06/24 04:15:13;;;;;;;21.67;8.85;;;615.20;2073.60;;;;;;5091948;28;20025;-77
2021/06/24 04:17:39;;;;;;;33.50;9.32;;;615.30;2073.60;;;;;;5090585;28;20024;-77
2021/06/24 04:20:07;;;;;;;28.58;10.65;;;615.20;2073.60;;;;;;5081278;28;20431;-77
2021/06/24 04:22:33;;;;;;;30.70;9.48;;;640.00;2073.60;;;;;;5070408;28;20029;-76
2021/06/24 04:24:58;;;;;;;27.48;10.80;;;640.20;2022.40;;;;;;5071927;28;20074;-77
2021/06/24 04:27:24;;;;;;;33.20;10.20;;;640.10;2022.40;;;;;;5071518;28;20052;-77
2021/06/24 04:29:51;;;;;;;28.92;10.93;;;640.10;2048.00;;;;;;5071777;28;20052;-76
2021/06/24 04:32:17;;;;;;;29.40;11.05;;;640.40;2022.40;;;;;;5070930;28;20454;-82
2021/06/24 04:34:42;;;;;;;30.55;10.63;;;640.20;2048.00;;;;;;5070239;28;20397;-76
2021/06/24 04:37:08;;;;;;;28.45;11.32;;;640.20;2048.00;;;;;;5070672;28;20039;-75
2021/06/24 04:39:34;;;;;;;36.50;10.75;;;640.40;2048.00;;;;;;5071439;28;20020;-76
2021/06/24 04:42:00;;;;;;;30.55;11.88;;;640.40;2073.60;;;;;;5071744;28;20024;-76
2021/06/24 04:44:26;;;;;;;36.33;10.60;;;640.40;2048.00;;;;;;5071268;28;20024;-76
2021/06/24 04:46:54;;;;;;;37.75;13.38;;;640.50;2048.00;;;;;;5071850;28;20030;-76
2021/06/24 04:49:19;;;;;;;39.20;11.90;;;640.50;2048.00;;;;;;5070057;28;20031;-77
2021/06/24 04:51:45;;;;;;;37.90;12.23;;;640.60;2048.00;;;;;;5071701;28;20028;-74
2021/06/24 04:54:11;;;;;;;36.63;12.90;;;640.60;2048.00;;;;;;5069871;28;20386;-74
2021/06/24 04:56:37;;;;;;;34.10;12.98;;;640.70;2022.40;;;;;;5071399;28;20036;-76
2021/06/24 04:59:04;;;;;;;38.55;13.20;;;640.90;2022.40;;;;;;5076767;28;20028;-77
2021/06/24 05:01:30;;;;;;;34.45;12.27;;;640.90;2022.40;;;;;;5084307;28;20039;-76
2021/06/24 05:03:55;;;;;;;35.55;12.30;;;665.60;2048.00;;;;;;5061795;28;20020;-77
2021/06/24 05:06:21;;;;;;;36.17;11.70;;;665.60;2048.00;;;;;;5063312;28;20081;-76
2021/06/24 05:08:47;;;;;;;50.25;12.20;;;665.70;2048.00;;;;;;5080956;28;20024;-75
2021/06/24 05:11:13;;;;;;;36.38;10.98;;;665.80;2048.00;;;;;;5080030;28;20020;-75
2021/06/24 05:13:38;;;;;;;30.98;10.10;;;665.90;2022.40;;;;;;5081926;28;20009;-77
2021/06/24 05:16:06;;;;;;;41.10;12.07;;;665.90;2022.40;;;;;;5080468;28;20040;-79
2021/06/24 05:18:34;;;;;;;33.85;10.50;;;666.10;2022.40;;;;;;5080776;28;20020;-78
2021/06/24 05:21:00;;;;;;;34.30;11.00;;;666.20;1996.80;;;;;;5085504;28;20020;-77
2021/06/24 05:23:26;;;;;;;41.75;11.18;;;666.30;2022.40;;;;;;5084390;28;20436;-74
2021/06/24 05:25:52;;;;;;;35.33;11.68;;;666.50;1996.80;;;;;;5065456;28;20024;-78
2021/06/24 05:28:18;;;;;;;32.72;11.77;;;666.40;2022.40;;;;;;5089577;28;20043;-78
2021/06/24 05:30:46;;;;;;;25.95;12.40;;;666.50;2022.40;;;;;;5091933;28;20024;-72
2021/06/24 05:33:12;;;;;;;36.70;12.07;;;691.20;2022.40;;;;;;5089788;28;20016;-75
2021/06/24 05:35:38;;;;;;;28.75;12.43;;;691.20;2022.40;;;;;;5085076;28;20024;-73
2021/06/24 05:38:04;;;;;;;33.22;12.27;;;691.30;2022.40;;;;;;5086585;28;20028;-77
2021/06/24 05:40:30;;;;;;;33.45;12.75;;;691.50;2022.40;;;;;;5064706;28;20081;-74
2021/06/24 05:42:56;;;;;;;33.63;13.15;;;691.60;1996.80;;;;;;5068846;28;20132;-74
2021/06/24 05:45:27;;;;;;;34.05;13.57;;;691.70;1996.80;;;;;;5087709;28;20016;-78
2021/06/24 05:47:54;;;;;;;32.58;13.00;;;691.90;2022.40;;;;;;5071553;28;20070;-73
2021/06/24 05:50:21;;;;;;;37.47;13.40;;;692.10;1996.80;;;;;;5074224;28;20031;-73
2021/06/24 05:52:47;;;;;;;34.13;15.23;;;716.80;1996.80;;;;;;5072801;28;20021;-73
2021/06/24 05:55:13;;;;;;;30.63;14.13;;;716.90;2022.40;;;;;;5093131;28;20462;-73
2021/06/24 05:57:39;;;;;;;38.90;15.35;;;716.90;1996.80;;;;;;5092814;28;20028;-73
2021/06/24 06:00:06;;;;;;;43.05;15.07;;;717.10;1996.80;;;;;;5093207;28;20035;-76
2021/06/24 06:02:32;;;;;;;38.08;14.75;;;717.20;1996.80;;;;;;5075198;28;21053;-73
2021/06/24 06:04:58;;;;;;;35.20;13.63;;;717.40;1996.80;;;;;;5090729;28;20466;-74
2021/06/24 06:07:24;;;;;;;34.88;13.90;;;717.40;1971.20;;;;;;5075682;28;20020;-74
2021/06/24 06:09:49;;;;;;;35.88;15.38;;;717.50;1971.20;;;;;;5075890;28;20423;-76
2021/06/24 06:12:15;;;;;;;31.77;14.25;;;717.70;1971.20;;;;;;5071244;28;20111;-74
2021/06/24 06:14:41;;;;;;;67.75;16.25;;;742.40;1971.20;;;;;;5091428;28;20107;-74
2021/06/24 06:17:07;;;;;;;46.83;15.50;;;742.60;1945.60;;;;;;5078307;28;20496;-74
2021/06/24 06:19:33;;;;;;;37.70;15.18;;;742.60;1945.60;;;;;;5070878;28;20099;-74
2021/06/24 06:21:58;;;;;;;35.88;13.80;;;742.70;1945.60;;;;;;5090853;28;20786;-73
2021/06/24 06:24:24;;;;;;;42.15;14.30;;;742.80;1868.80;;;;;;5073775;28;20031;-74
2021/06/24 06:26:50;;;;;;;35.25;14.05;;;742.80;1894.40;;;;;;5093010;28;20520;-73
2021/06/24 06:29:16;;;;;;;32.45;14.25;;;743.00;1920.00;;;;;;5092794;28;20024;-73
2021/06/24 06:31:42;;;;;;;34.55;14.35;;;743.00;1894.40;;;;;;5093104;28;20103;-73
2021/06/24 06:34:08;;;;;;;32.55;15.23;;;743.20;1868.80;;;;;;5093634;28;20032;-74
2021/06/24 06:36:35;;;;;;;29.85;13.05;;;743.30;1868.80;;;;;;5075236;28;20035;-74
2021/06/24 06:39:01;;;;;;;38.42;13.10;;;768.00;1817.60;;;;;;5093351;28;20021;-74
2021/06/24 06:41:27;;;;;;;52.25;15.85;;;768.10;1792.00;;;;;;5093581;28;20447;-73
2021/06/24 06:43:53;;;;;;;42.15;14.43;;;768.10;1792.00;;;;;;5093264;28;20024;-73
2021/06/24 06:46:19;;;;;;;36.33;13.90;;;768.40;1792.00;;;;;;5093487;28;20031;-74
2021/06/24 06:48:45;;;;;;;45.67;14.05;;;768.40;1792.00;;;;;;5093454;28;20161;-73
2021/06/24 06:51:11;;;;;;;34.50;14.63;;;768.40;1766.40;;;;;;5093332;28;20020;-75
2021/06/24 06:53:37;;;;;;;32.58;13.85;;;768.60;1740.80;;;;;;5093286;28;20505;-74
2021/06/24 06:56:04;;;;;;;40.03;13.18;;;768.60;1740.80;;;;;;5074554;28;20067;-73
2021/06/24 06:58:30;;;;;;;35.58;14.15;;;768.70;1715.20;;;;;;5092885;28;20062;-75
2021/06/24 07:00:56;;;;;;;36.15;13.65;;;768.80;1740.80;;;;;;5093086;28;20017;-74
2021/06/24 07:03:22;;;;;;;36.50;13.55;;;793.70;1740.80;;;;;;5093175;28;20030;-74
2021/06/24 07:05:47;;;;;;;40.33;15.07;;;793.80;1740.80;;;;;;5092171;28;20032;-75
2021/06/24 07:08:13;;;;;;;42.53;13.55;;;794.00;1792.00;;;;;;5093191;28;20016;-78
2021/06/24 07:10:39;;;;;;;39.83;14.68;;;794.00;1740.80;;;;;;5074684;28;20054;-75
2021/06/24 07:13:05;;;;;;;32.70;13.38;;;794.00;1715.20;;;;;;5093266;28;20030;-79
2021/06/24 07:15:31;;;;;;;33.38;14.07;;;793.80;1715.20;;;;;;5073218;28;20081;-75
2021/06/24 07:17:56;;;;;;;28.80;14.25;;;793.70;1740.80;;;;;;5074499;28;20127;-75
2021/06/24 07:20:22;;;;;;;35.15;13.70;;;793.70;1740.80;;;;;;5092660;28;20024;-74
2021/06/24 07:22:48;;;;;;;46.58;14.68;;;793.70;1740.80;;;;;;5092757;28;20028;-76
2021/06/24 07:25:17;;;;;;;37.63;14.48;;;793.70;1740.80;;;;;;5092429;28;20062;-74
2021/06/24 07:27:45;;;;;;;34.03;13.23;;;793.70;1715.20;;;;;;5092724;28;20048;-74
2021/06/24 07:30:11;;;;;;;43.45;13.23;;;768.90;1689.60;;;;;;5092213;28;20085;-76
2021/06/24 07:32:37;;;;;;;35.45;13.02;;;793.60;1766.40;;;;;;5074256;28;20117;-77
2021/06/24 07:35:04;;;;;;;40.97;14.48;;;793.60;1766.40;;;;;;5092479;28;20024;-73
2021/06/24 07:37:30;;;;;;;32.08;13.18;;;793.70;1740.80;;;;;;5092425;28;20040;-74
2021/06/24 07:39:56;;;;;;;29.90;11.85;;;793.70;1740.80;;;;;;5092566;28;20397;-73
2021/06/24 07:42:22;;;;;;;35.22;13.35;;;793.80;1766.40;;;;;;5091844;28;20058;-73
2021/06/24 07:44:48;;;;;;;34.60;12.85;;;794.00;1766.40;;;;;;5073502;28;20040;-74
2021/06/24 07:47:14;;;;;;;37.33;13.07;;;794.10;1715.20;;;;;;5092210;28;20022;-74
2021/06/24 07:49:40;;;;;;;31.88;11.43;;;794.30;1766.40;;;;;;5091076;28;20032;-77
2021/06/24 07:52:06;;;;;;;33.30;12.73;;;794.30;1715.20;;;;;;5092137;28;20024;-74
2021/06/24 07:54:32;;;;;;;45.90;14.40;;;794.50;1740.80;;;;;;5091524;28;20032;-74
2021/06/24 07:56:57;;;;;;;37.28;12.77;;;819.30;1715.20;;;;;;5088943;28;20040;-74
2021/06/24 07:59:23;;;;;;;34.60;12.48;;;819.60;1689.60;;;;;;5091443;28;20402;-74
2021/06/24 08:01:49;;;;;;;37.05;12.07;;;819.80;1664.00;;;;;;5092159;28;20024;-74
2021/06/24 08:04:14;;;;;;;32.83;13.20;;;819.80;1638.40;;;;;;5091447;28;20031;-73
2021/06/24 08:06:40;;;;;;;39.58;12.88;;;819.70;1664.00;;;;;;5092089;28;20027;-73
2021/06/24 08:09:09;;;;;;;51.53;12.70;;;819.80;1638.40;;;;;;5091361;28;20020;-77
2021/06/24 08:11:35;;;;;;;33.28;12.27;;;819.80;1638.40;;;;;;5073877;28;20032;-74
2021/06/24 08:14:01;;;;;;;37.60;12.30;;;819.60;1638.40;;;;;;5091345;28;20047;-74
2021/06/24 08:16:28;;;;;;;37.80;12.23;;;819.60;1638.40;;;;;;5073424;28;20061;-74
2021/06/24 08:18:54;;;;;;;31.05;11.55;;;819.90;1638.40;;;;;;5091338;28;20013;-74
2021/06/24 08:21:20;;;;;;;31.35;10.70;;;819.90;1638.40;;;;;;5091579;28;20400;-73
2021/06/24 08:23:45;;;;;;;37.70;11.55;;;820.00;1664.00;;;;;;5091151;28;20024;-73
2021/06/24 08:26:11;;;;;;;38.65;12.38;;;844.90;1638.40;;;;;;5090904;28;20032;-74
2021/06/24 08:28:37;;;;;;;34.53;14.00;;;845.10;1612.80;;;;;;5091266;28;20028;-73
2021/06/24 08:31:03;;;;;;;33.50;12.00;;;845.20;1612.80;;;;;;5090744;28;20027;-73
2021/06/24 08:33:29;;;;;;;31.88;11.80;;;845.20;1587.20;;;;;;5091143;28;20027;-76
2021/06/24 08:35:55;;;;;;;47.90;13.23;;;845.20;1561.60;;;;;;5090857;28;20035;-73
2021/06/24 08:38:21;;;;;;;39.83;11.82;;;845.40;1587.20;;;;;;5091310;28;20024;-73
2021/06/24 08:40:46;;;;;;;42.00;12.15;;;845.50;1587.20;;;;;;5091220;28;20034;-73
2021/06/24 08:43:12;;;;;;;36.72;12.45;;;845.50;1536.00;;;;;;5073615;28;20508;-74
2021/06/24 08:45:39;;;;;;;31.55;12.15;;;845.70;1536.00;;;;;;5089481;28;20040;-73
2021/06/24 08:48:13;;;;;;;32.38;11.57;;;845.50;1536.00;;;;;;5090553;28;20035;-73
2021/06/24 08:50:42;;;;;;;41.25;13.15;;;845.70;1536.00;;;;;;5068186;28;20083;-73
2021/06/24 08:53:07;;;;;;;42.85;13.30;;;845.50;1561.60;;;;;;5067631;28;20090;-72
2021/06/24 08:55:40;;;;;;;42.15;14.20;;;870.40;1536.00;;;;;;5083190;28;20024;-73
2021/06/24 08:58:07;;;;;;;43.65;12.73;;;870.50;1536.00;;;;;;5093576;28;20477;-74
2021/06/24 09:00:33;;;;;;;46.17;12.90;;;870.70;1536.00;;;;;;5093267;28;20044;-75
2021/06/24 09:03:14;;;;;;;33.30;13.43;;;870.90;1510.40;;;;;;5090560;28;20067;-73
2021/06/24 09:05:53;;;;;;;28.55;12.63;;;870.90;1510.40;;;;;;5088918;28;20028;-75
2021/06/24 09:08:37;;;;;;;36.85;12.65;;;871.00;1484.80;;;;;;5088006;28;20077;-73
2021/06/24 09:11:16;;;;;;;41.60;13.90;;;871.10;1510.40;;;;;;5082013;28;20017;-74
2021/06/24 09:13:43;;;;;;;30.77;13.02;;;871.30;1484.80;;;;;;5088905;28;20023;-74
2021/06/24 09:16:34;;;;;;;35.15;12.00;;;871.10;1459.20;;;;;;5090689;28;20044;-74
2021/06/24 09:19:24;;;;;;;28.35;12.23;;;870.90;1433.60;;;;;;5090906;28;20024;-74
2021/06/24 09:22:00;;;;;;;37.78;14.02;;;871.10;1459.20;;;;;;5074140;28;20546;-76
2021/06/24 09:24:49;;;;;;;34.95;12.93;;;871.10;1484.80;;;;;;5093082;28;20039;-75
2021/06/24 09:27:18;;;;;;;34.75;12.02;;;871.20;1484.80;;;;;;5090768;28;20047;-75
2021/06/24 09:29:50;;;;;;;43.90;14.73;;;871.20;1484.80;;;;;;5074392;28;20412;-74
2021/06/24 09:32:37;;;;;;;41.35;13.55;;;896.20;1459.20;;;;;;5090781;28;20044;-74
2021/06/24 09:35:09;;;;;;;35.55;13.77;;;896.30;1408.00;;;;;;5091905;28;20099;-73
2021/06/24 09:38:04;;;;;;;38.75;13.30;;;871.30;1433.60;;;;;;5090521;28;20359;-74
2021/06/24 09:40:51;;;;;;;39.70;12.57;;;871.30;1433.60;;;;;;5074188;28;20653;-74
2021/06/24 09:43:26;;;;;;;35.38;12.95;;;896.10;1433.60;;;;;;5090762;28;20028;-73
2021/06/24 09:46:27;;;;;;;32.92;12.88;;;896.30;1408.00;;;;;;5091030;28;20512;-73
2021/06/24 09:49:01;;;;;;;32.55;13.27;;;896.50;1408.00;;;;;;5031291;28;20092;-76
2021/06/24 09:51:30;;;;;;;31.80;12.70;;;896.40;1408.00;;;;;;5031756;28;20037;-76
2021/06/24 09:53:58;;;;;;;31.92;12.77;;;896.10;1408.00;;;;;;5013712;28;20034;-75
2021/06/24 09:56:31;;;;;;;36.83;12.93;;;896.20;1408.00;;;;;;5030556;28;20045;-74
2021/06/24 09:58:59;;;;;;;28.70;12.80;;;896.20;1408.00;;;;;;5031107;28;20034;-74
2021/06/24 10:01:33;;;;;;;39.53;13.80;;;896.60;1408.00;;;;;;5031163;28;20029;-73
2021/06/24 10:04:00;;;;;;;37.87;12.27;;;896.70;1356.80;;;;;;5031099;28;20037;-74
2021/06/24 10:06:27;;;;;;;32.90;13.98;;;896.70;1356.80;;;;;;5014884;28;20556;-73
2021/06/24 10:08:54;;;;;;;36.63;14.32;;;896.90;1331.20;;;;;;5031575;28;20411;-75
2021/06/24 10:11:24;;;;;;;39.13;13.80;;;896.70;1331.20;;;;;;5031280;28;20034;-74
2021/06/24 10:13:50;;;;;;;31.70;12.88;;;896.90;1331.20;;;;;;5014213;28;20417;-74
2021/06/24 10:16:17;;;;;;;32.05;14.18;;;896.90;1280.00;;;;;;5029934;28;20120;-74
2021/06/24 10:18:47;;;;;;;26.42;12.90;;;921.60;1356.80;;;;;;5030677;28;20033;-74
2021/06/24 10:21:17;;;;;;;36.42;12.80;;;921.60;1356.80;;;;;;5030384;28;20029;-74
2021/06/24 10:23:51;;;;;;;39.05;12.85;;;921.80;1331.20;;;;;;5084784;28;20180;-77
2021/06/24 10:26:18;;;;;;;36.57;15.50;;;921.90;1331.20;;;;;;5087659;28;20055;-74
2021/06/24 10:28:44;;;;;;;40.63;14.20;;;922.00;1356.80;;;;;;5074210;28;20036;-74
2021/06/24 10:31:37;;;;;;;30.92;13.43;;;922.10;1331.20;;;;;;5073735;28;20035;-74
2021/06/24 10:34:04;;;;;;;33.15;12.18;;;922.10;1305.60;;;;;;5088227;28;20023;-74
2021/06/24 10:36:32;;;;;;;42.90;13.30;;;922.30;1280.00;;;;;;5091379;28;20127;-73
2021/06/24 10:38:59;;;;;;;36.60;14.43;;;922.10;1280.00;;;;;;5087754;28;20048;-73
2021/06/24 10:41:25;;;;;;;32.08;12.90;;;922.10;1305.60;;;;;;5093275;28;20103;-75
2021/06/24 10:43:53;;;;;;;32.33;14.23;;;922.00;1331.20;;;;;;5092956;28;20058;-75
2021/06/24 10:46:21;;;;;;;34.17;14.77;;;922.10;1331.20;;;;;;5104687;28;20081;-75
2021/06/24 10:48:47;;;;;;;25.05;12.80;;;922.30;1331.20;;;;;;5073128;28;20557;-77
2021/06/24 10:51:15;;;;;;;45.25;13.27;;;922.40;1305.60;;;;;;5074192;28;20143;-77
2021/06/24 10:53:47;;;;;;;29.95;13.35;;;922.50;1331.20;;;;;;5091562;28;20024;-76
2021/06/24 10:56:23;;;;;;;35.05;13.80;;;922.40;1280.00;;;;;;5092497;28;20079;-77
2021/06/24 10:58:49;;;;;;;35.80;13.35;;;922.40;1305.60;;;;;;5092753;28;20020;-76
2021/06/24 11:01:36;;;;;;;40.47;14.35;;;947.30;1356.80;;;;;;5092663;28;20020;-76
2021/06/24 11:04:02;;;;;;;30.48;13.05;;;947.30;1305.60;;;;;;5087343;28;20016;-76
2021/06/24 11:06:40;;;;;;;31.75;12.82;;;947.40;1280.00;;;;;;5091508;28;20020;-77
2021/06/24 11:09:15;;;;;;;33.78;13.20;;;947.50;1254.40;;;;;;5087988;28;20066;-77
2021/06/24 11:11:43;;;;;;;38.77;11.93;;;947.50;1280.00;;;;;;5087326;28;20032;-76
2021/06/24 11:14:09;;;;;;;35.08;13.60;;;947.60;1228.80;;;;;;5092543;28;20016;-77
2021/06/24 11:16:36;;;;;;;34.90;13.60;;;947.90;1280.00;;;;;;5091286;28;20024;-76
2021/06/24 11:19:04;;;;;;;38.42;13.45;;;947.80;1254.40;;;;;;5071017;28;20127;-76
2021/06/24 11:21:30;;;;;;;48.97;12.88;;;947.80;1228.80;;;;;;5091262;28;20094;-76
2021/06/24 11:24:02;;;;;;;27.35;12.48;;;948.10;1203.20;;;;;;5092401;28;20020;-76
2021/06/24 11:26:29;;;;;;;29.77;11.50;;;948.10;1203.20;;;;;;5072668;28;20052;-75
2021/06/24 11:29:11;;;;;;;37.75;12.75;;;947.80;1203.20;;;;;;5092031;28;20039;-75
2021/06/24 11:31:46;;;;;;;43.22;12.18;;;948.10;1177.60;;;;;;5091900;28;20062;-76
2021/06/24 11:36:54;;;;;;;35.17;12.15;;;972.80;1152.00;;;;;;5090711;28;20040;-75
2021/06/24 11:39:27;;;;;;;35.30;12.00;;;972.90;1177.60;;;;;;5086496;28;20081;-78
2021/06/24 11:41:55;;;;;;;31.45;10.70;;;973.10;1126.40;;;;;;5091091;28;20038;-75
2021/06/24 11:44:46;;;;;;;32.00;11.75;;;973.10;1049.60;;;;;;5086777;28;20016;-76
2021/06/24 11:47:17;;;;;;;24.70;11.10;;;973.20;1075.20;;;;;;5028506;28;20039;-77
2021/06/24 12:04:02;;;;;;;21.95;9.98;;;973.20;1024.00;;;;;;5028601;28;20525;-78
2021/06/24 12:06:44;;;;;;;31.13;10.60;;;973.40;1024.00;;;;;;5028589;28;20025;-75
2021/06/24 12:09:10;;;;;;;28.35;10.77;;;973.40;1100.80;;;;;;5028562;28;20121;-77
2021/06/24 12:11:39;;;;;;;40.00;11.43;;;973.20;1075.20;;;;;;5012172;28;20060;-75
2021/06/24 12:14:19;;;;;;;27.52;10.93;;;973.40;1075.20;;;;;;5029349;28;20021;-76
2021/06/24 12:17:11;;;;;;;32.92;12.13;;;973.20;1075.20;;;;;;5028469;28;20029;-78
2021/06/24 12:20:00;;;;;;;36.63;10.32;;;973.50;1049.60;;;;;;5025492;28;20124;-75
2021/06/24 12:22:38;;;;;;;32.28;11.23;;;973.60;1049.60;;;;;;5028252;28;20025;-76